Time;durP1;ratioP1;P1;durP2;ratioP2;P2;SDS_P1;SDS_P2;PMS_P1;PMS_P2;Temp;Humidity;BMP_temperature;BMP_pressure;BME280_temperature;BME280_humidity;BME280_pressure;Samples;Min_cycle;Max_cycle;Signal;HPM_P1;HPM_P2
2022/02/10 00:14:02;;;;;;;5.50;5.00;;;;;;;5.13;84.79;152678.94;5063913;28;20439;-76
2022/02/10 00:19:50;;;;;;;5.20;4.47;;;;;;;5.10;86.42;152671.19;5046475;28;20431;-76
2022/02/10 00:22:34;;;;;;;5.43;4.43;;;;;;;5.10;85.22;152671.19;5080644;28;20463;-76
2022/02/10 00:25:45;;;;;;;6.17;4.70;;;;;;;5.10;83.66;152671.19;5060945;28;20966;-77
2022/02/10 00:34:15;;;;;;;5.07;4.53;;;;;;;4.96;85.75;152635.06;5055012;28;20455;-76
2022/02/10 00:37:04;;;;;;;8.50;6.10;;;;;;;4.87;84.50;152614.47;5061112;28;20866;-77
2022/02/10 00:40:06;;;;;;;5.50;4.47;;;;;;;4.82;83.33;152601.56;5075907;28;20479;-76
2022/02/10 00:42:43;;;;;;;9.20;5.00;;;;;;;4.69;84.56;152568.06;5029567;28;20778;-76
2022/02/10 00:45:18;;;;;;;7.67;5.40;;;;;;;4.66;86.49;152560.34;5045978;28;20577;-75
2022/02/10 00:47:56;;;;;;;6.13;5.33;;;;;;;4.66;85.24;152560.34;5048828;28;20470;-77
2022/02/10 00:50:33;;;;;;;5.30;4.80;;;;;;;4.59;85.76;152542.31;5044218;28;20463;-76
2022/02/10 00:53:14;;;;;;;7.43;5.60;;;;;;;4.55;87.13;152532.03;5032984;28;20446;-77
2022/02/10 00:55:49;;;;;;;7.87;6.60;;;;;;;4.51;88.05;152520.41;5047062;28;20450;-76
2022/02/10 00:58:29;;;;;;;6.53;5.73;;;;;;;4.50;87.89;152517.84;5049719;28;20446;-76
2022/02/10 01:07:06;;;;;;;7.23;5.33;;;;;;;4.41;87.23;152495.94;5060367;28;20479;-76
2022/02/10 01:12:44;;;;;;;5.87;4.77;;;;;;;4.42;87.57;152498.50;5029381;28;20492;-77
2022/02/10 01:30:01;;;;;;;6.20;5.53;;;;;;;4.24;86.92;152452.13;4986265;28;20437;-76
2022/02/10 01:32:38;;;;;;;6.60;5.40;;;;;;;4.19;88.47;152440.56;5029202;28;20784;-76
2022/02/10 01:35:19;;;;;;;8.10;5.10;;;;;;;4.22;87.75;152447.00;5074437;28;20457;-76
2022/02/10 01:37:54;;;;;;;7.70;6.47;;;;;;;4.20;86.13;152441.84;5064930;28;20886;-77
2022/02/10 01:40:49;;;;;;;9.63;5.50;;;;;;;4.18;86.17;152436.72;5047055;28;20455;-76
2022/02/10 01:58:11;;;;;;;6.87;5.23;;;;;;;3.83;87.50;152347.84;4953565;28;20552;-77
2022/02/10 02:03:39;;;;;;;8.60;5.00;;;;;;;3.77;88.29;152332.38;5076266;28;20455;-76
2022/02/10 02:06:23;;;;;;;7.27;6.00;;;;;;;3.76;87.31;152328.53;5043242;28;20485;-76
2022/02/10 02:09:01;;;;;;;6.83;5.20;;;;;;;3.78;88.48;152333.69;5076176;28;20439;-76
2022/02/10 02:11:39;;;;;;;5.20;4.70;;;;;;;3.78;88.78;152334.97;5073583;28;20458;-76
2022/02/10 02:14:16;;;;;;;7.10;5.73;;;;;;;3.76;88.50;152328.53;5045615;28;20953;-77
2022/02/10 02:16:54;;;;;;;6.17;5.40;;;;;;;3.79;87.86;152336.22;5061126;28;20459;-77
2022/02/10 02:19:31;;;;;;;6.03;5.13;;;;;;;3.76;88.09;152329.78;5044119;28;20454;-76
2022/02/10 02:22:09;;;;;;;6.43;5.27;;;;;;;3.77;88.47;152332.38;5047346;28;20945;-76
2022/02/10 02:24:45;;;;;;;5.70;5.10;;;;;;;3.77;89.47;152331.09;5046292;28;20782;-76
2022/02/10 02:27:20;;;;;;;6.17;5.07;;;;;;;3.75;89.15;152325.94;5047119;28;20483;-76
2022/02/10 02:30:08;;;;;;;6.00;5.50;;;;;;;3.74;88.23;152323.34;5078164;28;20791;-76
2022/02/10 02:33:01;;;;;;;7.20;5.40;;;;;;;3.77;88.02;152331.09;5051852;28;20968;-76
2022/02/10 02:35:49;;;;;;;8.47;6.10;;;;;;;3.77;87.44;152332.38;5046287;28;20588;-76
2022/02/10 02:38:47;;;;;;;6.00;4.80;;;;;;;3.72;89.40;152319.50;5045456;28;20865;-76
2022/02/10 03:04:58;;;;;;;6.90;5.80;;;;;;;3.42;90.15;152243.56;5038896;28;20443;-76
2022/02/10 03:07:44;;;;;;;6.37;5.70;;;;;;;3.39;88.77;152234.59;5034582;28;20807;-76
2022/02/10 03:10:35;;;;;;;6.10;5.53;;;;;;;3.36;89.41;152228.09;5030828;28;20449;-76
2022/02/10 03:13:16;;;;;;;6.50;5.87;;;;;;;3.37;90.67;152230.69;5033522;28;20442;-76
2022/02/10 03:15:54;;;;;;;9.20;5.87;;;;;;;3.38;89.02;152232.00;5081260;28;20540;-76
2022/02/10 03:18:40;;;;;;;7.30;5.83;;;;;;;3.37;88.25;152230.69;5078722;28;20553;-77
2022/02/10 03:21:36;;;;;;;6.87;5.77;;;;;;;3.39;89.25;152235.81;5080363;28;20515;-76
2022/02/10 04:05:14;;;;;;;6.00;4.40;;;;;;;3.26;89.17;152202.38;5049005;28;20441;-77
2022/02/10 04:07:58;;;;;;;5.33;4.70;;;;;;;3.30;89.37;152212.69;5063115;28;20469;-76
2022/02/10 04:13:37;;;;;;;4.83;4.10;;;;;;;3.25;86.96;152199.81;5046504;28;20435;-76
2022/02/10 04:16:17;;;;;;;5.53;5.03;;;;;;;3.24;88.22;152197.22;5033928;28;20462;-76
2022/02/10 04:21:53;;;;;;;7.90;5.57;;;;;;;3.28;87.59;152207.56;5040970;28;20446;-77
2022/02/10 04:24:48;;;;;;;5.30;4.57;;;;;;;3.34;88.10;152222.97;5062998;28;20459;-77
2022/02/10 04:27:46;;;;;;;11.23;4.30;;;;;;;3.32;88.12;152217.81;5078085;28;20463;-76
2022/02/10 04:30:37;;;;;;;5.17;4.67;;;;;;;3.25;88.74;152199.81;5064330;28;20465;-76
2022/02/10 04:57:21;;;;;;;5.57;4.63;;;;;;;3.24;89.52;152197.22;5076755;28;21000;-77
2022/02/10 05:00:13;;;;;;;6.27;4.73;;;;;;;3.22;88.29;152190.81;5023686;28;20445;-76
2022/02/10 05:06:31;;;;;;;4.63;4.07;;;;;;;3.19;89.52;152184.38;5046811;28;20443;-76
2022/02/10 05:12:41;;;;;;;5.40;4.47;;;;;;;3.15;89.11;152174.03;5049304;28;20438;-76
2022/02/10 05:18:29;;;;;;;4.30;3.67;;;;;;;3.13;89.67;152168.91;5038362;28;21051;-76
2022/02/10 05:24:24;;;;;;;6.70;4.20;;;;;;;3.16;89.93;152176.66;5012386;28;20932;-76
2022/02/10 05:33:07;;;;;;;4.63;3.63;;;;;;;3.18;89.20;152181.78;5032531;28;20454;-76
2022/02/10 05:35:46;;;;;;;8.00;3.87;;;;;;;3.18;87.91;152180.53;5044811;28;20530;-76
2022/02/10 05:38:27;;;;;;;6.10;3.60;;;;;;;3.18;88.11;152181.78;5046676;28;20562;-76
2022/02/10 05:44:21;;;;;;;4.20;3.50;;;;;;;3.26;87.12;152202.38;5077779;28;20877;-77
2022/02/10 05:47:36;;;;;;;6.13;4.20;;;;;;;3.23;87.64;152194.63;5044312;28;20479;-77
2022/02/10 05:50:48;;;;;;;4.83;3.60;;;;;;;3.26;87.90;152202.38;5078107;28;20450;-76
2022/02/10 05:53:50;;;;;;;3.80;3.50;;;;;;;3.29;88.21;152208.81;5045287;28;20941;-76
2022/02/10 05:56:37;;;;;;;4.13;3.40;;;;;;;3.32;89.38;152217.81;5044849;28;20529;-76
2022/02/10 05:59:39;;;;;;;3.97;3.57;;;;;;;3.26;88.77;152201.06;5062002;28;20454;-76
2022/02/10 06:49:17;;;;;;;4.37;3.70;;;;;;;3.76;89.13;152328.53;5037882;28;20821;-76
2022/02/10 06:52:01;;;;;;;3.67;3.20;;;;;;;3.90;88.94;152364.56;5050275;28;20464;-76
2022/02/10 06:54:52;;;;;;;5.20;3.27;;;;;;;3.99;88.33;152387.75;5047026;28;20938;-76
2022/02/10 07:06:22;;;;;;;4.80;3.53;;;;;;;4.29;87.43;152465.00;5046702;28;20458;-75
2022/02/10 07:09:15;;;;;;;4.07;3.53;;;;;;;4.41;86.80;152495.94;5078161;28;20446;-75
2022/02/10 07:15:11;;;;;;;4.23;3.53;;;;;;;4.70;85.83;152569.38;5012833;28;20786;-76
2022/02/10 07:50:16;;;;;;;9.67;5.07;;;;;;;6.44;79.35;153014.28;5047850;28;20447;-76
2022/02/10 07:53:11;;;;;;;5.53;4.00;;;;;;;6.49;77.19;153027.16;5056357;28;20968;-76
2022/02/10 07:59:01;;;;;;;4.80;3.90;;;;;;;6.56;76.48;153046.56;5037924;28;20534;-76
2022/02/10 08:05:11;;;;;;;4.20;3.70;;;;;;;6.75;75.84;153094.31;5036265;28;20438;-76
2022/02/10 08:57:07;;;;;;;4.77;4.00;;;;;;;7.46;74.67;153275.06;5052836;28;21019;-75
2022/02/10 09:00:04;;;;;;;4.70;3.70;;;;;;;7.58;75.03;153306.03;5045605;28;20438;-76
2022/02/10 09:03:11;;;;;;;7.03;4.07;;;;;;;7.63;74.86;153318.94;5074155;28;20451;-75
2022/02/10 09:05:56;;;;;;;5.80;4.17;;;;;;;7.70;75.16;153337.06;5075955;28;20446;-76
2022/02/10 09:09:07;;;;;;;6.00;4.43;;;;;;;7.81;73.47;153365.50;5076767;28;20463;-75
2022/02/10 09:12:04;;;;;;;5.70;3.70;;;;;;;7.91;72.96;153391.31;5074438;28;20484;-76
2022/02/10 09:20:41;;;;;;;5.70;4.07;;;;;;;8.03;75.55;153422.31;5058903;28;20535;-76
2022/02/10 09:58:29;;;;;;;5.07;3.70;;;;;;;9.08;72.61;153691.25;5061164;28;20514;-76
2022/02/10 10:01:23;;;;;;;4.00;3.30;;;;;;;9.05;73.33;153683.50;5045032;28;20452;-76
2022/02/10 10:04:11;;;;;;;5.53;3.40;;;;;;;9.20;74.08;153722.28;5043737;28;20483;-75
2022/02/10 10:07:02;;;;;;;5.77;3.70;;;;;;;9.40;71.09;153774.00;5079158;28;20561;-77
2022/02/10 10:09:47;;;;;;;5.10;3.73;;;;;;;9.51;71.44;153802.47;5077308;28;20483;-77
2022/02/10 10:18:40;;;;;;;5.50;4.40;;;;;;;9.51;72.38;153802.47;5013739;28;20814;-77
2022/02/10 10:21:26;;;;;;;6.43;4.90;;;;;;;9.59;73.57;153821.88;5079525;28;20482;-77
2022/02/10 10:24:27;;;;;;;5.20;4.30;;;;;;;9.53;71.95;153807.63;5043191;28;20477;-78
2022/02/10 10:27:28;;;;;;;5.10;4.40;;;;;;;9.61;71.97;153828.34;5050093;28;20482;-77
2022/02/10 10:51:10;;;;;;;8.10;4.50;;;;;;;9.85;71.79;153889.16;5034181;28;20454;-77
2022/02/10 10:53:52;;;;;;;6.30;4.30;;;;;;;10.07;70.02;153944.81;5062206;28;20447;-77
2022/02/10 10:56:32;;;;;;;6.50;4.50;;;;;;;10.14;69.52;153963.00;5079211;28;20442;-77
2022/02/10 11:38:31;;;;;;;5.50;4.40;;;;;;;10.35;72.97;154017.38;5061596;28;20958;-75
2022/02/10 12:37:19;;;;;;;7.17;5.60;;;;;;;10.33;72.37;154013.47;5101933;28;20502;-77
2022/02/10 12:42:02;;;;;;;8.83;6.00;;;;;;;10.36;75.09;154019.94;5101043;28;20440;-77
2022/02/10 12:43:52;;;;;;;6.57;5.90;;;;;;;10.37;73.04;154022.53;5086677;28;20444;-77
2022/02/10 14:11:30;;;;;;;11.03;8.20;;;;;;;8.71;82.50;153596.81;5116528;27;20445;-76
2022/02/10 14:14:08;;;;;;;9.03;7.10;;;;;;;8.74;82.65;153604.59;5071276;28;20468;-77
2022/02/10 14:16:50;;;;;;;10.57;8.27;;;;;;;8.71;86.18;153595.56;5064001;28;20540;-77
2022/02/10 14:19:37;;;;;;;10.47;8.07;;;;;;;8.68;83.04;153589.13;5080932;28;20456;-77
2022/02/10 14:22:26;;;;;;;9.03;7.80;;;;;;;8.67;87.17;153585.22;5071961;28;20456;-77
2022/02/10 14:28:09;;;;;;;9.13;7.47;;;;;;;8.76;85.85;153608.50;5011990;28;20458;-77
2022/02/10 14:30:45;;;;;;;9.20;7.37;;;;;;;8.64;82.69;153577.44;5011590;28;20953;-77
2022/02/10 14:33:25;;;;;;;9.27;7.97;;;;;;;8.44;83.37;153528.34;5045539;28;20568;-77
2022/02/10 14:36:06;;;;;;;8.73;7.40;;;;;;;8.33;85.69;153499.91;5068176;28;20458;-77
2022/02/10 14:38:51;;;;;;;14.33;8.80;;;;;;;8.42;88.25;153523.16;5072436;28;20558;-77
2022/02/10 15:17:10;;;;;;;8.80;7.10;;;;;;;7.94;88.13;153399.09;5118780;28;20440;-77
2022/02/10 15:29:27;;;;;;;11.00;7.73;;;;;;;7.93;87.32;153396.47;5106214;28;21005;-77
2022/02/10 15:52:44;;;;;;;8.87;6.57;;;;;;;8.08;90.72;153435.22;5122496;28;20444;-77
2022/02/10 15:55:48;;;;;;;10.70;7.20;;;;;;;8.02;87.70;153419.75;5096174;28;20993;-77
2022/02/10 16:19:09;;;;;;;6.33;4.47;;;;;;;8.07;80.60;153432.66;5088417;28;20437;-77
2022/02/10 16:21:57;;;;;;;4.57;3.87;;;;;;;8.06;79.79;153428.75;5103802;28;20874;-77
2022/02/10 16:24:36;;;;;;;4.57;4.03;;;;;;;7.97;82.90;153408.09;5108643;28;20456;-77
2022/02/10 16:27:15;;;;;;;4.97;3.80;;;;;;;8.01;83.17;153417.16;5105852;28;20946;-77
2022/02/10 16:29:59;;;;;;;5.73;3.60;;;;;;;7.96;84.11;153404.22;5106045;28;20473;-77
2022/02/10 16:32:35;;;;;;;5.50;3.97;;;;;;;7.91;84.45;153391.31;5105010;28;20825;-77
2022/02/10 16:35:11;;;;;;;6.03;4.50;;;;;;;7.80;81.04;153362.88;5091695;28;20886;-77
2022/02/10 16:37:46;;;;;;;6.37;5.40;;;;;;;7.73;84.90;153344.81;5108689;28;20440;-76
2022/02/10 16:40:22;;;;;;;8.07;5.63;;;;;;;7.70;83.61;153337.06;5108036;28;20977;-75
2022/02/10 16:42:58;;;;;;;11.10;5.83;;;;;;;7.73;83.77;153344.81;5101632;28;20473;-75
2022/02/10 16:45:35;;;;;;;6.07;4.63;;;;;;;7.74;81.50;153347.38;5108337;28;20440;-75
2022/02/10 16:48:11;;;;;;;6.30;4.47;;;;;;;7.77;83.31;153355.13;5090077;28;20451;-75
2022/02/10 16:50:48;;;;;;;5.30;4.03;;;;;;;7.69;81.41;153335.75;5105442;28;20444;-75
2022/02/10 16:53:25;;;;;;;4.37;3.90;;;;;;;7.76;84.38;153352.53;5106310;28;20448;-75
2022/02/10 16:56:06;;;;;;;4.90;3.43;;;;;;;7.73;83.58;153346.06;5099342;28;20979;-75
2022/02/10 16:58:56;;;;;;;5.20;4.03;;;;;;;7.68;78.78;153331.84;5105341;28;20445;-75
2022/02/10 17:01:48;;;;;;;5.00;3.70;;;;;;;7.72;84.37;153342.22;5091506;28;20442;-75
2022/02/10 17:04:54;;;;;;;4.60;3.40;;;;;;;7.67;77.96;153329.31;5102828;28;20464;-75
2022/02/10 17:17:14;;;;;;;4.67;3.70;;;;;;;7.65;82.48;153324.16;5095823;28;21436;-75
2022/02/10 17:19:34;;;;;;;4.60;3.83;;;;;;;7.63;81.53;153320.25;5090693;28;20500;-75
2022/02/10 17:25:11;;;;;;;4.87;3.90;;;;;;;7.58;78.73;153306.03;5082930;28;20727;-75
2022/02/10 17:27:54;;;;;;;4.90;3.47;;;;;;;7.56;78.78;153300.88;5099519;28;20436;-76
2022/02/10 17:30:57;;;;;;;5.00;3.73;;;;;;;7.54;77.92;153297.03;5104844;27;20440;-76
2022/02/10 17:33:38;;;;;;;4.53;3.70;;;;;;;7.59;82.94;153309.94;5103853;28;20433;-76
2022/02/10 17:36:26;;;;;;;5.40;4.07;;;;;;;7.55;81.15;153299.59;5101264;28;20448;-76
2022/02/10 17:42:22;;;;;;;5.03;3.57;;;;;;;7.47;77.21;153278.91;5074280;28;20967;-76
2022/02/10 17:45:17;;;;;;;5.60;3.50;;;;;;;7.43;78.64;153267.31;5094736;28;20536;-76
2022/02/10 17:53:52;;;;;;;6.37;4.37;;;;;;;7.46;81.60;153275.06;5086966;28;20473;-75
2022/02/10 17:56:29;;;;;;;5.30;3.40;;;;;;;7.43;81.96;153267.31;5087107;28;20949;-75
2022/02/10 17:59:05;;;;;;;3.93;3.37;;;;;;;7.39;79.96;153257.00;5104574;28;20448;-75
2022/02/10 18:01:42;;;;;;;5.90;3.90;;;;;;;7.39;81.10;153258.25;5085450;28;20845;-75
2022/02/10 18:04:19;;;;;;;5.70;3.70;;;;;;;7.36;81.88;153251.78;5091372;28;20970;-75
2022/02/10 18:06:56;;;;;;;6.27;4.03;;;;;;;7.35;78.61;153247.94;5087741;28;20448;-76
2022/02/10 18:10:01;;;;;;;5.60;3.83;;;;;;;7.35;81.83;153247.94;5084196;28;20800;-76
2022/02/10 18:15:34;;;;;;;4.70;3.83;;;;;;;7.30;81.68;153235.03;5103627;27;20432;-76
2022/02/10 18:18:18;;;;;;;5.37;3.83;;;;;;;7.31;83.95;153238.88;5106627;28;20452;-76
2022/02/10 18:21:01;;;;;;;5.17;3.43;;;;;;;7.25;82.13;153223.38;5104672;28;20532;-75
2022/02/10 18:24:00;;;;;;;8.63;4.83;;;;;;;7.17;83.73;153202.75;5104314;28;20479;-76
2022/02/10 18:26:57;;;;;;;6.20;4.53;;;;;;;7.20;80.08;153210.47;5104179;28;20473;-76
2022/02/10 18:29:48;;;;;;;8.10;4.60;;;;;;;7.22;83.90;153215.66;5103784;28;20428;-76
2022/02/10 19:01:48;;;;;;;3.83;3.47;;;;;;;7.12;83.01;153189.81;5103665;28;20437;-75
2022/02/10 19:07:21;;;;;;;4.37;3.47;;;;;;;7.07;84.33;153176.91;5093984;28;20444;-76
2022/02/10 19:09:57;;;;;;;4.27;3.87;;;;;;;7.06;82.23;153173.03;5077747;28;20448;-76
2022/02/10 19:12:42;;;;;;;6.97;3.90;;;;;;;7.05;86.50;153170.44;5094722;28;20927;-75
2022/02/10 19:15:21;;;;;;;5.13;4.30;;;;;;;7.01;86.10;153160.13;5083937;28;20815;-76
2022/02/10 19:17:58;;;;;;;4.97;3.90;;;;;;;6.98;83.43;153153.69;5097592;28;20448;-75
2022/02/10 19:20:34;;;;;;;5.53;4.67;;;;;;;6.97;85.34;153151.09;5100067;28;20452;-76
2022/02/10 19:23:10;;;;;;;7.47;4.23;;;;;;;6.94;85.73;153142.03;5096302;28;21020;-76
2022/02/10 19:25:46;;;;;;;3.80;3.40;;;;;;;6.91;84.48;153135.59;5102061;28;20436;-76
2022/02/10 19:28:22;;;;;;;4.30;3.50;;;;;;;6.93;84.83;153140.78;5080910;28;20484;-75
2022/02/10 19:30:59;;;;;;;4.87;4.37;;;;;;;6.91;86.83;153134.34;5089289;28;20440;-75
2022/02/10 19:33:36;;;;;;;4.63;3.40;;;;;;;6.88;84.10;153127.88;5107051;28;20437;-75
2022/02/10 19:36:12;;;;;;;4.30;3.73;;;;;;;6.87;84.76;153123.97;5088468;28;20440;-76
2022/02/10 19:38:47;;;;;;;5.17;4.20;;;;;;;6.84;85.29;153116.22;5103993;28;20466;-75
2022/02/10 19:41:30;;;;;;;4.63;3.57;;;;;;;6.87;84.96;153123.97;5088609;28;20819;-76
2022/02/10 19:44:07;;;;;;;4.27;3.50;;;;;;;6.83;86.12;153114.94;5086867;28;20559;-76
2022/02/10 19:46:44;;;;;;;5.60;4.10;;;;;;;6.84;85.30;153116.22;5106640;28;20950;-75
2022/02/10 19:49:24;;;;;;;4.83;3.83;;;;;;;6.82;84.72;153111.06;5102960;28;20448;-76
2022/02/10 19:51:59;;;;;;;5.03;3.97;;;;;;;6.80;86.97;153107.22;5123609;27;20894;-75
2022/02/10 19:54:39;;;;;;;5.67;3.80;;;;;;;6.74;87.08;153091.72;5086657;28;20432;-77
2022/02/10 19:57:16;;;;;;;4.10;3.70;;;;;;;6.68;86.71;153076.22;5105110;28;20532;-77
2022/02/10 19:59:53;;;;;;;4.40;3.70;;;;;;;6.70;85.58;153081.38;5122316;27;20447;-77
2022/02/10 20:02:29;;;;;;;5.40;4.00;;;;;;;6.68;86.61;153077.50;5100262;28;20444;-75
2022/02/10 20:05:06;;;;;;;7.90;4.97;;;;;;;6.66;85.70;153071.06;5104155;28;20534;-77
2022/02/10 20:07:47;;;;;;;11.37;4.73;;;;;;;6.66;87.70;153071.06;5081694;28;20536;-77
2022/02/10 20:10:23;;;;;;;7.00;4.30;;;;;;;6.65;85.42;153068.47;5107095;28;20432;-77
2022/02/10 20:12:59;;;;;;;6.17;4.33;;;;;;;6.66;84.68;153071.06;5109111;27;20851;-77
2022/02/10 20:15:34;;;;;;;5.10;4.60;;;;;;;6.67;85.50;153073.66;5102578;27;20776;-76
2022/02/10 20:18:12;;;;;;;5.03;4.53;;;;;;;6.64;85.12;153065.91;5083586;28;20456;-77
2022/02/10 20:20:53;;;;;;;4.60;4.00;;;;;;;6.63;84.47;153063.31;5090760;28;20456;-76
2022/02/10 20:23:32;;;;;;;5.00;4.37;;;;;;;6.58;83.40;153051.72;5106838;28;20480;-76
2022/02/10 20:26:08;;;;;;;6.10;5.20;;;;;;;6.61;84.18;153058.16;5092741;28;20456;-76
2022/02/10 20:28:44;;;;;;;7.10;6.10;;;;;;;6.59;84.29;153053.00;5103416;28;20444;-77
2022/02/10 20:31:19;;;;;;;6.90;6.20;;;;;;;6.60;85.53;153056.88;5104596;28;20487;-76
2022/02/10 20:33:55;;;;;;;5.60;4.77;;;;;;;6.59;85.34;153053.00;5101632;28;20431;-76
2022/02/10 20:36:34;;;;;;;4.90;4.40;;;;;;;6.61;87.05;153058.16;5104883;28;20449;-76
2022/02/10 20:39:10;;;;;;;4.80;4.30;;;;;;;6.59;87.57;153054.28;5105309;27;20925;-77
2022/02/10 20:41:50;;;;;;;7.17;4.40;;;;;;;6.57;87.47;153047.81;5092083;28;20436;-76
2022/02/10 20:44:25;;;;;;;6.13;4.47;;;;;;;6.57;87.72;153049.13;5097667;28;20464;-76
2022/02/10 20:47:01;;;;;;;5.70;4.47;;;;;;;6.57;87.43;153049.13;5104766;28;20429;-76
2022/02/10 20:49:37;;;;;;;4.97;4.50;;;;;;;6.58;87.23;153051.72;5088510;28;20514;-77
2022/02/10 20:52:14;;;;;;;5.17;4.53;;;;;;;6.56;86.00;153045.25;5085893;28;20441;-76
2022/02/10 20:54:49;;;;;;;6.53;4.70;;;;;;;6.56;86.39;153045.25;5104973;27;20424;-77
2022/02/10 20:57:25;;;;;;;6.70;5.07;;;;;;;6.57;85.79;153049.13;5106011;28;20443;-76
2022/02/10 21:00:01;;;;;;;10.80;8.00;;;;;;;6.55;84.41;153042.66;5102741;28;20446;-76
2022/02/10 21:02:41;;;;;;;6.60;5.50;;;;;;;6.58;84.19;153051.72;5103930;28;20460;-76
2022/02/10 21:05:30;;;;;;;5.90;5.03;;;;;;;6.60;84.77;153056.88;5085913;28;20456;-76
2022/02/10 21:08:12;;;;;;;9.90;7.60;;;;;;;6.60;88.67;153056.88;5100388;28;20750;-76
2022/02/10 21:10:48;;;;;;;7.77;6.57;;;;;;;6.57;85.70;153047.81;5100275;28;20468;-76
2022/02/10 21:13:25;;;;;;;8.80;7.90;;;;;;;6.57;85.83;153047.81;5090534;28;20547;-76
2022/02/10 21:16:00;;;;;;;11.30;8.03;;;;;;;6.56;85.76;153046.56;5098187;28;20493;-77
2022/02/10 21:18:36;;;;;;;13.50;9.47;;;;;;;6.56;86.17;153045.25;5102115;28;20452;-77
2022/02/10 21:21:15;;;;;;;7.43;5.57;;;;;;;6.55;87.86;153042.66;5105471;28;20440;-76
2022/02/10 21:23:56;;;;;;;6.70;5.30;;;;;;;6.55;87.05;153042.66;5107035;28;20471;-76
2022/02/10 21:26:38;;;;;;;6.80;5.87;;;;;;;6.54;86.18;153040.13;5108640;28;20505;-77
2022/02/10 21:29:15;;;;;;;8.57;7.73;;;;;;;6.56;87.13;153045.25;5110632;28;20958;-76
2022/02/10 21:31:52;;;;;;;6.00;5.30;;;;;;;6.60;88.69;153055.56;5106532;28;20445;-77
2022/02/10 21:34:32;;;;;;;5.57;4.97;;;;;;;6.54;86.33;153040.13;5104051;28;20448;-76
2022/02/10 21:37:12;;;;;;;8.60;6.70;;;;;;;6.52;86.66;153036.22;5085551;28;20452;-77
2022/02/10 21:39:55;;;;;;;8.47;6.30;;;;;;;6.55;91.07;153042.66;5105090;28;20444;-76
2022/02/10 21:48:37;;;;;;;5.93;5.03;;;;;;;6.57;88.81;153047.81;5100024;28;20448;-77
2022/02/10 21:57:26;;;;;;;8.23;4.87;;;;;;;6.56;89.87;153045.25;5102512;28;20459;-76
2022/02/10 22:00:27;;;;;;;6.20;4.80;;;;;;;6.56;88.29;153046.56;5122679;27;20437;-77
2022/02/10 22:09:09;;;;;;;5.33;4.83;;;;;;;6.58;87.42;153050.41;5105218;28;20440;-77
2022/02/10 22:12:01;;;;;;;5.90;5.10;;;;;;;6.55;88.25;153043.97;5089064;28;20444;-76
2022/02/10 22:18:11;;;;;;;6.00;4.37;;;;;;;6.57;87.26;153047.81;5085696;28;21018;-76
2022/02/10 22:20:48;;;;;;;10.20;7.00;;;;;;;6.56;89.44;153046.56;5104618;28;20449;-77
2022/02/10 22:23:26;;;;;;;6.33;5.73;;;;;;;6.59;90.30;153053.00;5102726;28;20698;-77
2022/02/10 22:26:04;;;;;;;6.57;4.80;;;;;;;6.57;89.82;153049.13;5103491;28;20888;-77
2022/02/10 22:28:48;;;;;;;7.80;4.10;;;;;;;6.56;88.93;153045.25;5105244;28;20526;-77
2022/02/10 22:31:33;;;;;;;5.53;3.87;;;;;;;6.54;88.67;153041.38;5103669;28;20479;-77
2022/02/10 22:34:24;;;;;;;5.40;4.60;;;;;;;6.55;90.31;153043.97;5104118;28;20523;-76
2022/02/10 22:37:02;;;;;;;8.07;5.03;;;;;;;6.54;89.31;153040.13;5106598;28;20436;-77
2022/02/10 22:39:41;;;;;;;8.80;4.87;;;;;;;6.55;89.43;153042.66;5089029;28;20488;-76
2022/02/10 22:42:21;;;;;;;5.53;4.30;;;;;;;6.58;89.90;153051.72;5106118;28;20892;-76
2022/02/10 22:44:56;;;;;;;4.07;3.67;;;;;;;6.58;89.19;153051.72;5105746;28;20459;-76
2022/02/10 22:47:33;;;;;;;4.63;4.13;;;;;;;6.59;88.55;153053.00;5107030;28;20448;-76
2022/02/10 22:50:09;;;;;;;5.30;4.80;;;;;;;6.63;88.50;153063.31;5082930;28;20448;-77
2022/02/10 22:52:45;;;;;;;5.50;4.00;;;;;;;6.65;89.82;153068.47;5104152;28;20853;-76
2022/02/10 22:55:21;;;;;;;5.30;4.57;;;;;;;6.66;90.92;153072.38;5106095;28;20444;-77
2022/02/10 22:57:56;;;;;;;6.43;4.30;;;;;;;6.67;91.72;153073.66;5102252;28;20445;-76
2022/02/10 23:00:34;;;;;;;6.10;4.40;;;;;;;6.64;90.25;153065.91;5090868;28;20451;-77
2022/02/10 23:03:11;;;;;;;4.43;3.93;;;;;;;6.66;90.06;153071.06;5104097;28;20449;-77
2022/02/10 23:05:47;;;;;;;4.70;4.27;;;;;;;6.65;88.47;153068.47;5093541;28;20492;-77
2022/02/10 23:08:22;;;;;;;5.97;4.60;;;;;;;6.67;89.75;153074.91;5093946;28;20984;-77
2022/02/10 23:10:58;;;;;;;5.27;4.47;;;;;;;6.70;89.29;153081.38;5094208;28;20456;-77
2022/02/10 23:13:35;;;;;;;6.20;5.40;;;;;;;6.69;88.61;153080.13;5092962;28;22654;-76
2022/02/10 23:16:12;;;;;;;4.93;4.53;;;;;;;6.71;89.90;153085.28;5107922;28;20836;-76
2022/02/10 23:18:49;;;;;;;5.67;4.20;;;;;;;6.71;88.22;153083.97;5093738;28;20491;-77
2022/02/10 23:21:24;;;;;;;5.10;4.53;;;;;;;6.70;88.61;153082.66;5123673;27;20550;-76
2022/02/10 23:24:00;;;;;;;9.57;5.60;;;;;;;6.73;90.35;153090.41;5096625;28;20769;-76
2022/02/10 23:26:36;;;;;;;5.87;5.10;;;;;;;6.71;90.39;153085.28;5111840;27;20447;-76
2022/02/10 23:29:11;;;;;;;6.67;5.40;;;;;;;6.73;90.17;153089.13;5109398;28;20778;-76
2022/02/10 23:31:47;;;;;;;7.40;5.00;;;;;;;6.71;89.92;153083.97;5092692;28;20441;-76
2022/02/10 23:34:24;;;;;;;5.77;5.10;;;;;;;6.71;90.13;153083.97;5101632;28;20511;-77
2022/02/10 23:36:59;;;;;;;5.87;4.70;;;;;;;6.72;90.03;153086.56;5107556;28;20445;-76
2022/02/10 23:39:38;;;;;;;10.70;5.70;;;;;;;6.74;91.31;153091.72;5093767;28;20830;-76
2022/02/10 23:42:17;;;;;;;6.10;4.50;;;;;;;6.74;90.28;153093.03;5110285;28;20456;-77
2022/02/10 23:44:53;;;;;;;6.20;4.90;;;;;;;6.75;92.94;153094.31;5110172;28;20495;-77
2022/02/10 23:47:32;;;;;;;7.53;5.40;;;;;;;6.73;92.39;153089.13;5089935;28;20488;-77
2022/02/10 23:50:16;;;;;;;7.27;5.40;;;;;;;6.72;91.08;153086.56;5106034;28;20531;-77
2022/02/10 23:52:54;;;;;;;6.40;5.07;;;;;;;6.72;91.55;153086.56;5100700;28;20484;-76
2022/02/10 23:55:33;;;;;;;7.37;5.67;;;;;;;6.73;90.81;153089.13;5106973;28;20548;-76
2022/02/10 23:58:20;;;;;;;6.80;5.37;;;;;;;6.72;89.53;153087.81;5101767;28;20961;-77
